sensor_id;sensor_type;location;lat;lon;timestamp;P1;durP1;ratioP1;P2;durP2;ratioP2
62707;SDS011;48769;51.624;5.886;2023-04-01T00:02:16;10.93;;;2.78;;
62707;SDS011;48769;51.624;5.886;2023-04-01T00:04:41;7.28;;;2.65;;
62707;SDS011;48769;51.624;5.886;2023-04-01T00:07:08;8.35;;;2.90;;
62707;SDS011;48769;51.624;5.886;2023-04-01T00:09:34;8.75;;;2.97;;
62707;SDS011;48769;51.624;5.886;2023-04-01T00:11:59;8.55;;;2.58;;
62707;SDS011;48769;51.624;5.886;2023-04-01T00:14:24;9.05;;;2.80;;
62707;SDS011;48769;51.624;5.886;2023-04-01T00:16:50;11.27;;;4.50;;
62707;SDS011;48769;51.624;5.886;2023-04-01T00:19:15;11.07;;;3.10;;
62707;SDS011;48769;51.624;5.886;2023-04-01T00:21:40;11.07;;;3.40;;
62707;SDS011;48769;51.624;5.886;2023-04-01T00:24:06;9.30;;;2.72;;
62707;SDS011;48769;51.624;5.886;2023-04-01T00:26:31;12.45;;;3.45;;
62707;SDS011;48769;51.624;5.886;2023-04-01T00:28:57;4.72;;;2.40;;
62707;SDS011;48769;51.624;5.886;2023-04-01T00:31:23;7.68;;;2.22;;
62707;SDS011;48769;51.624;5.886;2023-04-01T00:33:48;11.88;;;3.00;;
62707;SDS011;48769;51.624;5.886;2023-04-01T00:36:15;8.07;;;2.70;;
62707;SDS011;48769;51.624;5.886;2023-04-01T00:38:43;4.50;;;2.35;;
62707;SDS011;48769;51.624;5.886;2023-04-01T00:41:09;9.82;;;2.65;;
62707;SDS011;48769;51.624;5.886;2023-04-01T00:43:40;7.65;;;3.05;;
62707;SDS011;48769;51.624;5.886;2023-04-01T00:46:07;8.13;;;2.60;;
62707;SDS011;48769;51.624;5.886;2023-04-01T00:48:36;7.05;;;2.60;;
62707;SDS011;48769;51.624;5.886;2023-04-01T00:51:06;7.15;;;2.42;;
62707;SDS011;48769;51.624;5.886;2023-04-01T00:53:36;12.50;;;3.38;;
62707;SDS011;48769;51.624;5.886;2023-04-01T00:56:10;5.85;;;3.20;;
62707;SDS011;48769;51.624;5.886;2023-04-01T00:58:40;8.43;;;3.78;;
62707;SDS011;48769;51.624;5.886;2023-04-01T01:01:08;7.82;;;3.15;;
62707;SDS011;48769;51.624;5.886;2023-04-01T01:03:35;5.88;;;3.47;;
62707;SDS011;48769;51.624;5.886;2023-04-01T01:06:07;8.45;;;2.40;;
62707;SDS011;48769;51.624;5.886;2023-04-01T01:08:52;10.20;;;3.10;;
62707;SDS011;48769;51.624;5.886;2023-04-01T01:11:37;9.23;;;3.28;;
62707;SDS011;48769;51.624;5.886;2023-04-01T01:14:12;8.27;;;2.78;;
62707;SDS011;48769;51.624;5.886;2023-04-01T01:17:12;7.82;;;3.05;;
62707;SDS011;48769;51.624;5.886;2023-04-01T01:19:50;4.95;;;2.22;;
62707;SDS011;48769;51.624;5.886;2023-04-01T01:27:57;8.57;;;2.92;;
62707;SDS011;48769;51.624;5.886;2023-04-01T01:30:37;7.63;;;3.58;;
62707;SDS011;48769;51.624;5.886;2023-04-01T01:36:16;5.28;;;3.20;;
62707;SDS011;48769;51.624;5.886;2023-04-01T01:38:45;6.32;;;3.47;;
62707;SDS011;48769;51.624;5.886;2023-04-01T01:41:12;5.30;;;3.70;;
62707;SDS011;48769;51.624;5.886;2023-04-01T01:43:42;6.75;;;3.20;;
62707;SDS011;48769;51.624;5.886;2023-04-01T01:46:13;5.65;;;3.58;;
62707;SDS011;48769;51.624;5.886;2023-04-01T01:48:42;5.72;;;3.15;;
62707;SDS011;48769;51.624;5.886;2023-04-01T01:51:08;8.07;;;4.45;;
62707;SDS011;48769;51.624;5.886;2023-04-01T01:53:34;6.80;;;4.13;;
62707;SDS011;48769;51.624;5.886;2023-04-01T01:56:00;5.45;;;3.72;;
62707;SDS011;48769;51.624;5.886;2023-04-01T01:58:42;8.27;;;3.72;;
62707;SDS011;48769;51.624;5.886;2023-04-01T02:01:17;9.10;;;3.88;;
62707;SDS011;48769;51.624;5.886;2023-04-01T02:03:55;4.25;;;3.30;;
62707;SDS011;48769;51.624;5.886;2023-04-01T02:06:23;5.70;;;3.72;;
62707;SDS011;48769;51.624;5.886;2023-04-01T02:08:55;6.45;;;3.90;;
62707;SDS011;48769;51.624;5.886;2023-04-01T02:11:29;5.75;;;4.72;;
62707;SDS011;48769;51.624;5.886;2023-04-01T02:14:10;5.68;;;4.40;;
62707;SDS011;48769;51.624;5.886;2023-04-01T02:16:45;7.57;;;4.93;;
62707;SDS011;48769;51.624;5.886;2023-04-01T02:19:16;7.15;;;5.05;;
62707;SDS011;48769;51.624;5.886;2023-04-01T02:21:47;8.10;;;5.57;;
62707;SDS011;48769;51.624;5.886;2023-04-01T02:24:16;8.75;;;6.63;;
62707;SDS011;48769;51.624;5.886;2023-04-01T02:26:43;10.38;;;6.47;;
62707;SDS011;48769;51.624;5.886;2023-04-01T02:29:10;12.75;;;7.88;;
62707;SDS011;48769;51.624;5.886;2023-04-01T02:31:37;10.30;;;7.63;;
62707;SDS011;48769;51.624;5.886;2023-04-01T02:34:02;10.95;;;7.22;;
62707;SDS011;48769;51.624;5.886;2023-04-01T02:36:28;16.52;;;7.95;;
62707;SDS011;48769;51.624;5.886;2023-04-01T02:38:53;9.45;;;7.65;;
62707;SDS011;48769;51.624;5.886;2023-04-01T02:41:20;10.95;;;7.55;;
62707;SDS011;48769;51.624;5.886;2023-04-01T02:43:46;10.93;;;8.40;;
62707;SDS011;48769;51.624;5.886;2023-04-01T02:46:11;12.73;;;8.85;;
62707;SDS011;48769;51.624;5.886;2023-04-01T02:48:36;10.95;;;8.60;;
62707;SDS011;48769;51.624;5.886;2023-04-01T02:51:02;12.00;;;8.52;;
62707;SDS011;48769;51.624;5.886;2023-04-01T02:53:28;12.02;;;9.18;;
62707;SDS011;48769;51.624;5.886;2023-04-01T02:55:53;13.98;;;8.98;;
62707;SDS011;48769;51.624;5.886;2023-04-01T02:58:22;14.98;;;10.32;;
62707;SDS011;48769;51.624;5.886;2023-04-01T03:00:47;13.25;;;10.30;;
62707;SDS011;48769;51.624;5.886;2023-04-01T03:03:12;15.65;;;11.13;;
62707;SDS011;48769;51.624;5.886;2023-04-01T03:05:38;14.75;;;10.68;;
62707;SDS011;48769;51.624;5.886;2023-04-01T03:08:04;13.93;;;10.25;;
62707;SDS011;48769;51.624;5.886;2023-04-01T03:10:30;14.45;;;11.02;;
62707;SDS011;48769;51.624;5.886;2023-04-01T03:12:55;16.23;;;12.45;;
62707;SDS011;48769;51.624;5.886;2023-04-01T03:15:21;17.00;;;12.15;;
62707;SDS011;48769;51.624;5.886;2023-04-01T03:17:46;19.58;;;12.32;;
62707;SDS011;48769;51.624;5.886;2023-04-01T03:20:12;17.05;;;11.85;;
62707;SDS011;48769;51.624;5.886;2023-04-01T03:22:37;21.80;;;13.15;;
62707;SDS011;48769;51.624;5.886;2023-04-01T03:25:04;18.73;;;13.30;;
62707;SDS011;48769;51.624;5.886;2023-04-01T03:27:30;21.67;;;13.98;;
62707;SDS011;48769;51.624;5.886;2023-04-01T03:29:55;22.77;;;14.50;;
62707;SDS011;48769;51.624;5.886;2023-04-01T03:32:20;24.27;;;14.88;;
62707;SDS011;48769;51.624;5.886;2023-04-01T03:34:46;21.20;;;14.68;;
62707;SDS011;48769;51.624;5.886;2023-04-01T03:37:11;25.52;;;16.13;;
62707;SDS011;48769;51.624;5.886;2023-04-01T03:39:37;25.33;;;15.98;;
62707;SDS011;48769;51.624;5.886;2023-04-01T03:42:02;26.42;;;15.40;;
62707;SDS011;48769;51.624;5.886;2023-04-01T03:44:31;24.45;;;15.95;;
62707;SDS011;48769;51.624;5.886;2023-04-01T03:46:57;26.70;;;15.73;;
62707;SDS011;48769;51.624;5.886;2023-04-01T03:49:22;23.83;;;15.32;;
62707;SDS011;48769;51.624;5.886;2023-04-01T03:51:48;29.50;;;16.10;;
62707;SDS011;48769;51.624;5.886;2023-04-01T03:54:13;25.90;;;15.50;;
62707;SDS011;48769;51.624;5.886;2023-04-01T03:56:38;26.85;;;16.23;;
62707;SDS011;48769;51.624;5.886;2023-04-01T03:59:05;27.77;;;16.13;;
62707;SDS011;48769;51.624;5.886;2023-04-01T04:01:32;28.13;;;16.02;;
62707;SDS011;48769;51.624;5.886;2023-04-01T04:03:57;28.92;;;15.10;;
62707;SDS011;48769;51.624;5.886;2023-04-01T04:06:23;29.80;;;16.60;;
62707;SDS011;48769;51.624;5.886;2023-04-01T04:08:49;28.50;;;15.27;;
62707;SDS011;48769;51.624;5.886;2023-04-01T04:11:14;27.85;;;15.40;;
62707;SDS011;48769;51.624;5.886;2023-04-01T04:13:40;24.17;;;14.07;;
62707;SDS011;48769;51.624;5.886;2023-04-01T04:16:07;21.75;;;14.55;;
62707;SDS011;48769;51.624;5.886;2023-04-01T04:18:33;22.92;;;12.90;;
62707;SDS011;48769;51.624;5.886;2023-04-01T04:20:58;18.00;;;12.52;;
62707;SDS011;48769;51.624;5.886;2023-04-01T04:23:24;20.45;;;13.52;;
62707;SDS011;48769;51.624;5.886;2023-04-01T04:25:53;18.55;;;12.10;;
62707;SDS011;48769;51.624;5.886;2023-04-01T04:28:24;18.30;;;11.15;;
62707;SDS011;48769;51.624;5.886;2023-04-01T04:30:50;18.85;;;12.18;;
62707;SDS011;48769;51.624;5.886;2023-04-01T04:33:15;21.65;;;12.20;;
62707;SDS011;48769;51.624;5.886;2023-04-01T04:35:41;17.88;;;11.25;;
62707;SDS011;48769;51.624;5.886;2023-04-01T04:38:06;17.58;;;11.80;;
62707;SDS011;48769;51.624;5.886;2023-04-01T04:40:31;19.05;;;12.23;;
62707;SDS011;48769;51.624;5.886;2023-04-01T04:42:57;20.30;;;12.43;;
62707;SDS011;48769;51.624;5.886;2023-04-01T04:45:22;16.73;;;10.68;;
62707;SDS011;48769;51.624;5.886;2023-04-01T04:47:47;16.13;;;11.38;;
62707;SDS011;48769;51.624;5.886;2023-04-01T04:50:13;19.23;;;10.23;;
62707;SDS011;48769;51.624;5.886;2023-04-01T04:52:38;15.50;;;10.73;;
62707;SDS011;48769;51.624;5.886;2023-04-01T04:55:04;16.13;;;10.55;;
62707;SDS011;48769;51.624;5.886;2023-04-01T04:57:29;15.20;;;10.43;;
62707;SDS011;48769;51.624;5.886;2023-04-01T04:59:55;14.18;;;9.73;;
62707;SDS011;48769;51.624;5.886;2023-04-01T05:02:20;18.52;;;9.95;;
62707;SDS011;48769;51.624;5.886;2023-04-01T05:04:45;14.68;;;9.70;;
62707;SDS011;48769;51.624;5.886;2023-04-01T05:07:11;13.40;;;8.93;;
62707;SDS011;48769;51.624;5.886;2023-04-01T05:09:36;15.23;;;9.32;;
62707;SDS011;48769;51.624;5.886;2023-04-01T05:12:01;15.77;;;9.40;;
62707;SDS011;48769;51.624;5.886;2023-04-01T05:14:27;15.00;;;9.43;;
62707;SDS011;48769;51.624;5.886;2023-04-01T05:16:52;13.18;;;9.13;;
62707;SDS011;48769;51.624;5.886;2023-04-01T05:19:19;13.48;;;9.82;;
62707;SDS011;48769;51.624;5.886;2023-04-01T05:21:44;13.35;;;9.60;;
62707;SDS011;48769;51.624;5.886;2023-04-01T05:24:10;12.98;;;9.55;;
62707;SDS011;48769;51.624;5.886;2023-04-01T05:26:35;15.02;;;9.52;;
62707;SDS011;48769;51.624;5.886;2023-04-01T05:29:02;14.60;;;10.52;;
62707;SDS011;48769;51.624;5.886;2023-04-01T05:31:28;14.30;;;10.10;;
62707;SDS011;48769;51.624;5.886;2023-04-01T05:33:54;15.93;;;10.05;;
62707;SDS011;48769;51.624;5.886;2023-04-01T05:36:19;14.63;;;9.88;;
62707;SDS011;48769;51.624;5.886;2023-04-01T05:38:45;15.63;;;10.32;;
62707;SDS011;48769;51.624;5.886;2023-04-01T05:41:11;16.45;;;10.25;;
62707;SDS011;48769;51.624;5.886;2023-04-01T05:43:37;14.25;;;9.90;;
62707;SDS011;48769;51.624;5.886;2023-04-01T05:46:03;16.70;;;10.63;;
62707;SDS011;48769;51.624;5.886;2023-04-01T05:48:28;16.67;;;11.20;;
62707;SDS011;48769;51.624;5.886;2023-04-01T05:50:53;19.63;;;12.20;;
62707;SDS011;48769;51.624;5.886;2023-04-01T05:53:18;18.02;;;11.35;;
62707;SDS011;48769;51.624;5.886;2023-04-01T05:55:44;16.98;;;11.07;;
62707;SDS011;48769;51.624;5.886;2023-04-01T05:58:09;18.88;;;12.13;;
62707;SDS011;48769;51.624;5.886;2023-04-01T06:00:34;15.30;;;10.57;;
62707;SDS011;48769;51.624;5.886;2023-04-01T06:03:00;16.05;;;11.18;;
62707;SDS011;48769;51.624;5.886;2023-04-01T06:05:29;20.77;;;11.80;;
62707;SDS011;48769;51.624;5.886;2023-04-01T06:08:04;18.48;;;12.63;;
62707;SDS011;48769;51.624;5.886;2023-04-01T06:10:48;21.27;;;13.65;;
62707;SDS011;48769;51.624;5.886;2023-04-01T06:13:41;18.75;;;12.98;;
62707;SDS011;48769;51.624;5.886;2023-04-01T06:18:54;19.67;;;13.32;;
62707;SDS011;48769;51.624;5.886;2023-04-01T06:24:11;23.17;;;14.23;;
62707;SDS011;48769;51.624;5.886;2023-04-01T06:27:19;23.42;;;14.60;;
62707;SDS011;48769;51.624;5.886;2023-04-01T06:33:13;28.83;;;16.80;;
62707;SDS011;48769;51.624;5.886;2023-04-01T06:36:14;28.40;;;17.05;;
62707;SDS011;48769;51.624;5.886;2023-04-01T06:41:27;27.83;;;17.27;;
62707;SDS011;48769;51.624;5.886;2023-04-01T06:46:47;33.78;;;20.83;;
62707;SDS011;48769;51.624;5.886;2023-04-01T06:52:17;32.92;;;20.35;;
62707;SDS011;48769;51.624;5.886;2023-04-01T06:54:47;40.20;;;22.75;;
62707;SDS011;48769;51.624;5.886;2023-04-01T06:57:28;39.42;;;22.30;;
62707;SDS011;48769;51.624;5.886;2023-04-01T06:59:59;38.13;;;21.40;;
62707;SDS011;48769;51.624;5.886;2023-04-01T07:02:39;29.50;;;18.25;;
62707;SDS011;48769;51.624;5.886;2023-04-01T07:05:10;30.17;;;19.00;;
62707;SDS011;48769;51.624;5.886;2023-04-01T07:07:44;33.75;;;19.15;;
62707;SDS011;48769;51.624;5.886;2023-04-01T07:10:17;30.83;;;18.58;;
62707;SDS011;48769;51.624;5.886;2023-04-01T07:12:58;33.65;;;20.05;;
62707;SDS011;48769;51.624;5.886;2023-04-01T07:15:33;30.55;;;18.85;;
62707;SDS011;48769;51.624;5.886;2023-04-01T07:18:07;29.58;;;18.15;;
62707;SDS011;48769;51.624;5.886;2023-04-01T07:20:39;33.88;;;20.15;;
62707;SDS011;48769;51.624;5.886;2023-04-01T07:23:06;31.88;;;19.17;;
62707;SDS011;48769;51.624;5.886;2023-04-01T07:25:38;36.13;;;19.98;;
62707;SDS011;48769;51.624;5.886;2023-04-01T07:28:12;32.40;;;19.58;;
62707;SDS011;48769;51.624;5.886;2023-04-01T07:39:30;30.60;;;18.38;;
62707;SDS011;48769;51.624;5.886;2023-04-01T07:45:22;35.60;;;19.02;;
62707;SDS011;48769;51.624;5.886;2023-04-01T07:48:06;31.52;;;17.70;;
62707;SDS011;48769;51.624;5.886;2023-04-01T07:50:32;37.90;;;18.40;;
62707;SDS011;48769;51.624;5.886;2023-04-01T07:56:09;39.67;;;19.75;;
62707;SDS011;48769;51.624;5.886;2023-04-01T07:58:50;39.25;;;19.17;;
62707;SDS011;48769;51.624;5.886;2023-04-01T08:04:09;34.72;;;19.25;;
62707;SDS011;48769;51.624;5.886;2023-04-01T08:09:25;38.05;;;19.77;;
62707;SDS011;48769;51.624;5.886;2023-04-01T08:12:07;34.15;;;19.20;;
62707;SDS011;48769;51.624;5.886;2023-04-01T08:14:39;45.38;;;20.70;;
62707;SDS011;48769;51.624;5.886;2023-04-01T08:17:28;38.58;;;19.67;;
62707;SDS011;48769;51.624;5.886;2023-04-01T08:22:43;39.63;;;18.90;;
62707;SDS011;48769;51.624;5.886;2023-04-01T08:25:19;32.40;;;17.65;;
62707;SDS011;48769;51.624;5.886;2023-04-01T08:27:53;30.85;;;17.88;;
62707;SDS011;48769;51.624;5.886;2023-04-01T08:30:25;32.20;;;17.60;;
62707;SDS011;48769;51.624;5.886;2023-04-01T08:32:56;29.42;;;17.38;;
62707;SDS011;48769;51.624;5.886;2023-04-01T08:35:29;29.92;;;16.70;;
62707;SDS011;48769;51.624;5.886;2023-04-01T08:38:05;26.55;;;14.18;;
62707;SDS011;48769;51.624;5.886;2023-04-01T08:43:10;22.77;;;14.15;;
62707;SDS011;48769;51.624;5.886;2023-04-01T08:48:58;23.42;;;13.48;;
62707;SDS011;48769;51.624;5.886;2023-04-01T09:05:53;27.70;;;15.43;;
62707;SDS011;48769;51.624;5.886;2023-04-01T09:11:04;24.80;;;14.82;;
62707;SDS011;48769;51.624;5.886;2023-04-01T09:13:56;26.50;;;15.35;;
62707;SDS011;48769;51.624;5.886;2023-04-01T09:27:27;23.77;;;15.30;;
62707;SDS011;48769;51.624;5.886;2023-04-01T09:35:30;28.67;;;15.98;;
62707;SDS011;48769;51.624;5.886;2023-04-01T09:38:26;29.48;;;17.73;;
62707;SDS011;48769;51.624;5.886;2023-04-01T09:40:56;27.00;;;17.48;;
62707;SDS011;48769;51.624;5.886;2023-04-01T09:43:34;31.63;;;18.67;;
62707;SDS011;48769;51.624;5.886;2023-04-01T09:46:26;30.90;;;17.27;;
62707;SDS011;48769;51.624;5.886;2023-04-01T09:49:40;31.27;;;18.23;;
62707;SDS011;48769;51.624;5.886;2023-04-01T09:52:26;34.08;;;19.92;;
62707;SDS011;48769;51.624;5.886;2023-04-01T10:12:00;29.38;;;17.85;;
62707;SDS011;48769;51.624;5.886;2023-04-01T10:14:52;30.48;;;17.60;;
62707;SDS011;48769;51.624;5.886;2023-04-01T10:34:48;26.55;;;16.83;;
62707;SDS011;48769;51.624;5.886;2023-04-01T10:40:31;24.35;;;15.88;;
62707;SDS011;48769;51.624;5.886;2023-04-01T10:43:11;24.13;;;15.88;;
62707;SDS011;48769;51.624;5.886;2023-04-01T10:51:43;20.60;;;14.05;;
62707;SDS011;48769;51.624;5.886;2023-04-01T10:54:49;21.13;;;14.98;;
62707;SDS011;48769;51.624;5.886;2023-04-01T11:00:32;22.38;;;15.20;;
62707;SDS011;48769;51.624;5.886;2023-04-01T11:15:23;22.17;;;15.57;;
62707;SDS011;48769;51.624;5.886;2023-04-01T11:18:32;21.88;;;14.13;;
62707;SDS011;48769;51.624;5.886;2023-04-01T11:35:42;15.40;;;12.10;;
62707;SDS011;48769;51.624;5.886;2023-04-01T11:44:21;15.30;;;10.13;;
62707;SDS011;48769;51.624;5.886;2023-04-01T11:49:29;11.77;;;8.43;;
62707;SDS011;48769;51.624;5.886;2023-04-01T11:57:46;16.20;;;10.65;;
62707;SDS011;48769;51.624;5.886;2023-04-01T12:00:32;16.48;;;11.27;;
62707;SDS011;48769;51.624;5.886;2023-04-01T12:09:18;19.27;;;12.88;;
62707;SDS011;48769;51.624;5.886;2023-04-01T12:25:27;22.58;;;14.43;;
62707;SDS011;48769;51.624;5.886;2023-04-01T12:30:49;20.70;;;14.73;;
62707;SDS011;48769;51.624;5.886;2023-04-01T12:47:24;15.45;;;12.13;;
62707;SDS011;48769;51.624;5.886;2023-04-01T12:53:15;12.50;;;9.52;;
62707;SDS011;48769;51.624;5.886;2023-04-01T12:55:59;13.90;;;9.07;;
62707;SDS011;48769;51.624;5.886;2023-04-01T13:09:52;12.60;;;9.63;;
62707;SDS011;48769;51.624;5.886;2023-04-01T13:12:28;10.30;;;8.57;;
62707;SDS011;48769;51.624;5.886;2023-04-01T13:23:17;10.57;;;8.85;;
62707;SDS011;48769;51.624;5.886;2023-04-01T13:26:00;9.55;;;8.38;;
62707;SDS011;48769;51.624;5.886;2023-04-01T13:28:39;10.27;;;8.35;;
62707;SDS011;48769;51.624;5.886;2023-04-01T13:39:39;10.50;;;8.48;;
62707;SDS011;48769;51.624;5.886;2023-04-01T13:45:00;11.23;;;8.25;;
62707;SDS011;48769;51.624;5.886;2023-04-01T13:53:34;11.38;;;8.82;;
62707;SDS011;48769;51.624;5.886;2023-04-01T13:59:18;12.15;;;9.48;;
62707;SDS011;48769;51.624;5.886;2023-04-01T14:01:56;11.18;;;8.23;;
62707;SDS011;48769;51.624;5.886;2023-04-01T14:07:32;10.43;;;8.98;;
62707;SDS011;48769;51.624;5.886;2023-04-01T14:12:57;11.98;;;9.10;;
62707;SDS011;48769;51.624;5.886;2023-04-01T14:18:32;13.68;;;10.40;;
62707;SDS011;48769;51.624;5.886;2023-04-01T14:21:27;14.95;;;11.98;;
62707;SDS011;48769;51.624;5.886;2023-04-01T14:29:12;15.60;;;13.25;;
62707;SDS011;48769;51.624;5.886;2023-04-01T14:34:34;17.70;;;12.50;;
62707;SDS011;48769;51.624;5.886;2023-04-01T14:50:57;14.57;;;10.35;;
62707;SDS011;48769;51.624;5.886;2023-04-01T14:53:33;12.70;;;10.02;;
62707;SDS011;48769;51.624;5.886;2023-04-01T14:56:07;14.98;;;11.13;;
62707;SDS011;48769;51.624;5.886;2023-04-01T14:58:40;16.77;;;12.02;;
62707;SDS011;48769;51.624;5.886;2023-04-01T15:01:13;14.20;;;10.50;;
62707;SDS011;48769;51.624;5.886;2023-04-01T15:04:05;16.90;;;12.68;;
62707;SDS011;48769;51.624;5.886;2023-04-01T15:06:45;14.77;;;11.85;;
62707;SDS011;48769;51.624;5.886;2023-04-01T15:09:38;17.15;;;12.55;;
62707;SDS011;48769;51.624;5.886;2023-04-01T15:15:05;16.40;;;13.55;;
62707;SDS011;48769;51.624;5.886;2023-04-01T15:37:15;14.70;;;11.98;;
62707;SDS011;48769;51.624;5.886;2023-04-01T15:42:31;15.45;;;12.48;;
62707;SDS011;48769;51.624;5.886;2023-04-01T15:45:24;21.08;;;13.38;;
62707;SDS011;48769;51.624;5.886;2023-04-01T15:48:19;16.95;;;12.95;;
62707;SDS011;48769;51.624;5.886;2023-04-01T16:00:00;21.02;;;15.05;;
62707;SDS011;48769;51.624;5.886;2023-04-01T16:02:39;24.20;;;16.77;;
62707;SDS011;48769;51.624;5.886;2023-04-01T16:07:53;21.83;;;15.77;;
62707;SDS011;48769;51.624;5.886;2023-04-01T16:30:35;23.75;;;16.63;;
62707;SDS011;48769;51.624;5.886;2023-04-01T16:33:51;25.00;;;16.70;;
62707;SDS011;48769;51.624;5.886;2023-04-01T16:36:10;21.90;;;14.63;;
62707;SDS011;48769;51.624;5.886;2023-04-01T16:42:08;17.02;;;12.85;;
62707;SDS011;48769;51.624;5.886;2023-04-01T16:47:21;22.40;;;14.15;;
62707;SDS011;48769;51.624;5.886;2023-04-01T16:58:21;19.45;;;15.38;;
62707;SDS011;48769;51.624;5.886;2023-04-01T17:00:53;18.77;;;15.75;;
62707;SDS011;48769;51.624;5.886;2023-04-01T17:03:42;19.55;;;15.45;;
62707;SDS011;48769;51.624;5.886;2023-04-01T17:11:46;18.85;;;14.40;;
62707;SDS011;48769;51.624;5.886;2023-04-01T17:14:28;18.70;;;13.55;;
62707;SDS011;48769;51.624;5.886;2023-04-01T17:22:55;15.97;;;13.03;;
62707;SDS011;48769;51.624;5.886;2023-04-01T17:31:02;18.02;;;13.57;;
62707;SDS011;48769;51.624;5.886;2023-04-01T17:36:24;9.27;;;7.95;;
62707;SDS011;48769;51.624;5.886;2023-04-01T17:44:43;12.65;;;8.38;;
62707;SDS011;48769;51.624;5.886;2023-04-01T17:55:44;11.38;;;7.90;;
62707;SDS011;48769;51.624;5.886;2023-04-01T17:58:20;11.00;;;7.75;;
62707;SDS011;48769;51.624;5.886;2023-04-01T18:01:25;7.60;;;6.80;;
62707;SDS011;48769;51.624;5.886;2023-04-01T18:07:14;8.00;;;6.72;;
62707;SDS011;48769;51.624;5.886;2023-04-01T18:10:08;9.93;;;8.50;;
62707;SDS011;48769;51.624;5.886;2023-04-01T18:24:02;8.88;;;7.20;;
62707;SDS011;48769;51.624;5.886;2023-04-01T18:26:39;7.80;;;7.00;;
62707;SDS011;48769;51.624;5.886;2023-04-01T18:31:36;9.88;;;7.57;;
62707;SDS011;48769;51.624;5.886;2023-04-01T18:34:16;9.88;;;7.95;;
62707;SDS011;48769;51.624;5.886;2023-04-01T18:36:47;10.63;;;9.10;;
62707;SDS011;48769;51.624;5.886;2023-04-01T18:42:19;9.70;;;8.30;;
62707;SDS011;48769;51.624;5.886;2023-04-01T18:44:51;9.95;;;8.80;;
62707;SDS011;48769;51.624;5.886;2023-04-01T18:47:34;10.05;;;8.90;;
62707;SDS011;48769;51.624;5.886;2023-04-01T18:50:14;12.40;;;8.88;;
62707;SDS011;48769;51.624;5.886;2023-04-01T18:52:47;13.43;;;9.82;;
62707;SDS011;48769;51.624;5.886;2023-04-01T18:55:22;10.07;;;8.68;;
62707;SDS011;48769;51.624;5.886;2023-04-01T18:57:58;11.32;;;9.45;;
62707;SDS011;48769;51.624;5.886;2023-04-01T19:00:38;13.18;;;10.88;;
62707;SDS011;48769;51.624;5.886;2023-04-01T19:05:42;13.68;;;10.95;;
62707;SDS011;48769;51.624;5.886;2023-04-01T19:19:20;14.52;;;12.65;;
62707;SDS011;48769;51.624;5.886;2023-04-01T19:21:55;15.30;;;12.80;;
62707;SDS011;48769;51.624;5.886;2023-04-01T19:27:36;16.73;;;14.40;;
62707;SDS011;48769;51.624;5.886;2023-04-01T19:30:10;18.27;;;15.35;;
62707;SDS011;48769;51.624;5.886;2023-04-01T19:41:12;18.20;;;15.65;;
62707;SDS011;48769;51.624;5.886;2023-04-01T19:46:36;16.83;;;14.55;;
62707;SDS011;48769;51.624;5.886;2023-04-01T20:02:45;15.73;;;13.88;;
62707;SDS011;48769;51.624;5.886;2023-04-01T20:06:00;14.20;;;12.70;;
62707;SDS011;48769;51.624;5.886;2023-04-01T20:10:35;16.92;;;14.10;;
62707;SDS011;48769;51.624;5.886;2023-04-01T20:13:20;15.95;;;13.43;;
62707;SDS011;48769;51.624;5.886;2023-04-01T20:15:58;16.15;;;13.68;;
62707;SDS011;48769;51.624;5.886;2023-04-01T20:24:00;12.88;;;10.88;;
62707;SDS011;48769;51.624;5.886;2023-04-01T20:26:36;13.35;;;10.35;;
62707;SDS011;48769;51.624;5.886;2023-04-01T20:32:11;13.48;;;12.05;;
62707;SDS011;48769;51.624;5.886;2023-04-01T20:35:15;14.10;;;11.00;;
62707;SDS011;48769;51.624;5.886;2023-04-01T20:37:51;15.40;;;13.23;;
62707;SDS011;48769;51.624;5.886;2023-04-01T20:40:49;14.43;;;12.95;;
62707;SDS011;48769;51.624;5.886;2023-04-01T20:43:30;17.75;;;13.68;;
62707;SDS011;48769;51.624;5.886;2023-04-01T20:51:29;15.07;;;12.52;;
62707;SDS011;48769;51.624;5.886;2023-04-01T20:54:05;12.75;;;11.43;;
62707;SDS011;48769;51.624;5.886;2023-04-01T20:59:44;12.48;;;11.18;;
62707;SDS011;48769;51.624;5.886;2023-04-01T21:02:32;11.07;;;9.82;;
62707;SDS011;48769;51.624;5.886;2023-04-01T21:07:51;13.10;;;11.07;;
62707;SDS011;48769;51.624;5.886;2023-04-01T21:10:33;12.70;;;11.18;;
62707;SDS011;48769;51.624;5.886;2023-04-01T21:18:47;13.98;;;12.20;;
62707;SDS011;48769;51.624;5.886;2023-04-01T21:26:35;12.52;;;10.32;;
62707;SDS011;48769;51.624;5.886;2023-04-01T21:35:06;15.40;;;11.52;;
62707;SDS011;48769;51.624;5.886;2023-04-01T21:53:50;16.67;;;13.02;;
62707;SDS011;48769;51.624;5.886;2023-04-01T22:02:15;12.05;;;10.40;;
62707;SDS011;48769;51.624;5.886;2023-04-01T22:08:10;12.60;;;11.30;;
62707;SDS011;48769;51.624;5.886;2023-04-01T22:13:26;12.57;;;10.75;;
62707;SDS011;48769;51.624;5.886;2023-04-01T22:16:13;8.55;;;7.63;;
62707;SDS011;48769;51.624;5.886;2023-04-01T22:18:48;10.77;;;9.68;;
62707;SDS011;48769;51.624;5.886;2023-04-01T22:21:27;10.77;;;9.68;;
62707;SDS011;48769;51.624;5.886;2023-04-01T22:26:35;20.17;;;14.63;;
62707;SDS011;48769;51.624;5.886;2023-04-01T22:31:47;17.30;;;14.05;;
62707;SDS011;48769;51.624;5.886;2023-04-01T22:34:22;18.83;;;15.25;;
62707;SDS011;48769;51.624;5.886;2023-04-01T22:40:00;13.65;;;10.68;;
62707;SDS011;48769;51.624;5.886;2023-04-01T22:42:53;11.25;;;9.77;;
62707;SDS011;48769;51.624;5.886;2023-04-01T22:45:31;16.45;;;13.50;;
62707;SDS011;48769;51.624;5.886;2023-04-01T22:48:17;13.00;;;11.60;;
62707;SDS011;48769;51.624;5.886;2023-04-01T22:50:53;11.95;;;10.63;;
62707;SDS011;48769;51.624;5.886;2023-04-01T22:56:22;13.07;;;11.73;;
62707;SDS011;48769;51.624;5.886;2023-04-01T22:59:09;12.73;;;11.40;;
62707;SDS011;48769;51.624;5.886;2023-04-01T23:01:44;14.02;;;11.13;;
62707;SDS011;48769;51.624;5.886;2023-04-01T23:04:16;11.70;;;10.60;;
62707;SDS011;48769;51.624;5.886;2023-04-01T23:06:51;12.48;;;9.50;;
62707;SDS011;48769;51.624;5.886;2023-04-01T23:09:28;11.55;;;10.27;;
62707;SDS011;48769;51.624;5.886;2023-04-01T23:12:03;10.38;;;9.18;;
62707;SDS011;48769;51.624;5.886;2023-04-01T23:22:37;9.07;;;8.18;;
62707;SDS011;48769;51.624;5.886;2023-04-01T23:27:52;9.40;;;8.40;;
62707;SDS011;48769;51.624;5.886;2023-04-01T23:33:36;10.85;;;8.25;;
62707;SDS011;48769;51.624;5.886;2023-04-01T23:35:56;8.10;;;7.30;;
62707;SDS011;48769;51.624;5.886;2023-04-01T23:38:30;7.25;;;6.53;;
62707;SDS011;48769;51.624;5.886;2023-04-01T23:40:59;8.55;;;7.55;;
62707;SDS011;48769;51.624;5.886;2023-04-01T23:43:26;7.20;;;6.50;;
62707;SDS011;48769;51.624;5.886;2023-04-01T23:45:56;8.38;;;7.57;;
62707;SDS011;48769;51.624;5.886;2023-04-01T23:48:26;8.05;;;7.25;;
62707;SDS011;48769;51.624;5.886;2023-04-01T23:50:57;8.20;;;7.40;;
62707;SDS011;48769;51.624;5.886;2023-04-01T23:53:24;7.82;;;6.93;;
62707;SDS011;48769;51.624;5.886;2023-04-01T23:55:53;8.18;;;7.38;;
